Time;durP1;ratioP1;P1;durP2;ratioP2;P2;SDS_P1;SDS_P2;PMS_P1;PMS_P2;Temp;Humidity;BMP_temperature;BMP_pressure;BME280_temperature;BME280_humidity;BME280_pressure;Samples;Min_cycle;Max_cycle;Signal;HPM_P1;HPM_P2
2021/01/27 00:01:26;;;;;;;17.13;9.55;;;2.40;99.90;;;;;;4127740;28;20041;-77
2021/01/27 00:03:27;;;;;;;15.60;10.38;;;2.40;99.90;;;;;;4128135;28;20034;-77
2021/01/27 00:05:33;;;;;;;14.98;9.43;;;2.40;99.90;;;;;;4127281;28;20078;-76
2021/01/27 00:07:34;;;;;;;15.57;9.40;;;2.50;99.90;;;;;;4127836;28;20030;-76
2021/01/27 00:15:14;;;;;;;13.38;10.25;;;2.50;99.90;;;;;;4130540;28;20037;-76
2021/01/27 00:17:15;;;;;;;12.73;8.25;;;2.50;99.90;;;;;;4130433;28;20035;-77
2021/01/27 00:19:15;;;;;;;15.52;9.90;;;2.50;99.90;;;;;;4130511;28;20227;-77
2021/01/27 00:21:16;;;;;;;15.10;10.45;;;2.50;99.90;;;;;;4130445;28;20066;-76
2021/01/27 00:23:16;;;;;;;16.70;9.80;;;2.60;99.90;;;;;;4130443;28;20069;-77
2021/01/27 00:25:21;;;;;;;13.23;7.85;;;2.60;99.90;;;;;;4130343;28;20034;-77
2021/01/27 00:27:22;;;;;;;17.05;10.15;;;2.60;99.90;;;;;;4128973;28;20039;-77
2021/01/27 00:29:22;;;;;;;13.68;8.85;;;2.60;99.90;;;;;;4129816;28;20030;-77
2021/01/27 00:31:23;;;;;;;14.32;7.93;;;2.60;99.90;;;;;;4130229;28;20398;-77
2021/01/27 00:33:23;;;;;;;17.80;9.77;;;2.60;99.90;;;;;;4130092;28;20030;-77
2021/01/27 00:35:31;;;;;;;17.60;9.23;;;2.60;99.90;;;;;;4130039;28;20419;-77
2021/01/27 00:37:31;;;;;;;12.02;8.20;;;2.60;99.90;;;;;;4130296;28;20390;-77
2021/01/27 00:39:32;;;;;;;13.70;8.07;;;2.60;99.90;;;;;;4129979;28;20122;-77
2021/01/27 00:41:32;;;;;;;13.20;8.65;;;2.60;99.90;;;;;;4130140;28;20034;-77
2021/01/27 00:43:33;;;;;;;14.45;9.27;;;2.60;99.90;;;;;;4128619;28;20073;-77
2021/01/27 00:45:33;;;;;;;14.98;9.13;;;2.60;99.90;;;;;;4129951;28;20073;-77
2021/01/27 00:47:34;;;;;;;12.68;8.55;;;2.70;99.90;;;;;;4128651;28;20386;-77
2021/01/27 00:49:35;;;;;;;10.38;8.05;;;2.70;99.90;;;;;;4128432;28;20113;-77
2021/01/27 00:51:35;;;;;;;13.32;8.50;;;2.70;99.90;;;;;;4124534;28;20078;-76
2021/01/27 00:53:36;;;;;;;14.55;8.60;;;2.70;99.90;;;;;;4127125;28;20042;-76
2021/01/27 00:55:37;;;;;;;11.65;8.15;;;2.70;99.90;;;;;;4129895;28;20100;-77
2021/01/27 00:57:37;;;;;;;10.55;7.18;;;2.70;99.90;;;;;;4129917;28;20185;-76
2021/01/27 00:59:38;;;;;;;9.80;7.50;;;2.70;99.90;;;;;;4121653;28;20043;-77
2021/01/27 01:01:38;;;;;;;10.30;5.95;;;2.70;99.90;;;;;;4123901;28;20034;-76
2021/01/27 01:03:39;;;;;;;9.77;6.65;;;2.80;99.90;;;;;;4129525;28;20050;-76
2021/01/27 01:05:43;;;;;;;10.18;5.80;;;2.80;99.90;;;;;;4129844;28;20112;-77
2021/01/27 01:07:46;;;;;;;;;;;2.90;99.90;;;;;;4130233;28;20022;-76
2021/01/27 01:09:46;;;;;;;14.25;7.22;;;2.90;99.90;;;;;;4128622;28;19917;-78
2021/01/27 01:11:47;;;;;;;9.27;7.13;;;2.90;99.90;;;;;;4129729;28;20385;-77
2021/01/27 01:13:48;;;;;;;10.50;6.70;;;2.90;99.90;;;;;;4129846;28;20027;-77
2021/01/27 01:15:49;;;;;;;7.90;5.22;;;2.80;99.90;;;;;;4138200;28;20053;-77
2021/01/27 01:17:50;;;;;;;6.53;5.88;;;2.80;99.90;;;;;;4121410;28;20038;-77
2021/01/27 01:19:50;;;;;;;10.10;7.15;;;2.80;99.90;;;;;;4128923;28;20031;-77
2021/01/27 01:21:51;;;;;;;10.25;6.93;;;2.90;99.90;;;;;;4107945;28;20074;-77
2021/01/27 01:23:51;;;;;;;12.73;7.85;;;2.90;99.90;;;;;;4111843;28;20095;-77
2021/01/27 01:25:52;;;;;;;9.65;6.60;;;2.80;99.90;;;;;;4112036;28;20058;-77
2021/01/27 01:27:53;;;;;;;8.88;6.13;;;2.80;99.90;;;;;;4110661;28;20060;-77
2021/01/27 01:29:53;;;;;;;9.02;5.25;;;2.80;99.90;;;;;;4111495;28;20033;-76
2021/01/27 01:31:54;;;;;;;9.85;6.43;;;2.80;99.90;;;;;;4126350;28;20421;-77
2021/01/27 01:33:54;;;;;;;13.63;7.30;;;2.80;99.90;;;;;;4110284;28;20031;-76
2021/01/27 01:35:55;;;;;;;7.60;6.80;;;2.80;99.90;;;;;;4112246;28;20088;-76
2021/01/27 01:37:56;;;;;;;8.10;6.78;;;2.80;99.90;;;;;;4113197;28;20387;-77
2021/01/27 01:39:57;;;;;;;12.70;6.63;;;2.70;99.90;;;;;;4112374;28;20042;-77
2021/01/27 01:41:57;;;;;;;8.30;6.85;;;2.70;99.90;;;;;;4111950;28;20075;-76
2021/01/27 01:43:58;;;;;;;12.63;7.40;;;2.60;99.90;;;;;;4111337;28;20051;-77
2021/01/27 01:46:04;;;;;;;9.05;6.57;;;2.60;99.90;;;;;;4110538;28;20046;-76
2021/01/27 01:48:31;;;;;;;11.90;7.85;;;2.60;99.90;;;;;;4096455;28;20054;-76
2021/01/27 01:50:31;;;;;;;14.27;7.13;;;2.50;99.90;;;;;;4095301;28;20130;-77
2021/01/27 01:52:32;;;;;;;13.18;8.13;;;2.50;99.90;;;;;;4096157;28;20077;-77
2021/01/27 01:54:40;;;;;;;8.73;7.05;;;2.40;99.90;;;;;;4095898;28;20061;-77
2021/01/27 01:56:48;;;;;;;13.07;8.27;;;2.40;99.90;;;;;;4095564;28;20302;-77
2021/01/27 01:58:52;;;;;;;12.18;7.75;;;2.40;99.90;;;;;;4096043;28;20333;-77
2021/01/27 02:00:57;;;;;;;11.07;8.10;;;2.30;99.90;;;;;;4095995;28;20036;-77
2021/01/27 02:02:59;;;;;;;12.20;7.82;;;2.30;99.90;;;;;;4095967;28;20031;-77
2021/01/27 02:05:04;;;;;;;10.13;7.45;;;2.30;99.90;;;;;;4096251;28;20149;-77
2021/01/27 02:07:05;;;;;;;13.90;9.13;;;2.30;99.90;;;;;;4096018;28;20546;-77
2021/01/27 02:09:06;;;;;;;11.38;8.55;;;2.30;99.90;;;;;;4095969;28;20031;-77
2021/01/27 02:11:07;;;;;;;10.73;8.73;;;2.30;99.90;;;;;;4097471;28;20031;-77
2021/01/27 02:13:36;;;;;;;12.88;8.50;;;2.30;99.90;;;;;;4097206;28;20023;-77
2021/01/27 02:15:55;;;;;;;11.68;7.75;;;2.30;99.90;;;;;;4097200;28;20194;-77
2021/01/27 02:18:13;;;;;;;6.50;5.80;;;2.30;99.90;;;;;;4095033;28;20443;-76
2021/01/27 02:20:44;;;;;;;10.75;7.57;;;2.30;99.90;;;;;;4096359;28;20030;-77
2021/01/27 02:23:23;;;;;;;12.18;7.55;;;2.40;99.90;;;;;;4086302;28;20027;-77
2021/01/27 02:25:51;;;;;;;12.35;8.40;;;2.30;99.90;;;;;;4097151;28;20496;-77
2021/01/27 02:27:59;;;;;;;9.70;7.05;;;2.20;99.90;;;;;;4086233;28;20074;-77
2021/01/27 02:30:45;;;;;;;12.25;9.05;;;2.20;99.90;;;;;;4099934;28;20039;-77
2021/01/27 02:33:07;;;;;;;9.43;7.03;;;2.20;99.90;;;;;;4099933;28;20118;-77
2021/01/27 02:35:43;;;;;;;8.85;7.85;;;2.20;99.90;;;;;;4099984;28;20443;-76
2021/01/27 02:37:57;;;;;;;11.77;7.22;;;2.30;99.90;;;;;;4098567;28;20039;-76
2021/01/27 02:40:03;;;;;;;10.88;7.22;;;2.30;99.90;;;;;;4099994;28;20023;-76
2021/01/27 02:42:15;;;;;;;13.32;8.30;;;2.30;99.90;;;;;;4099875;28;20020;-76
2021/01/27 02:44:19;;;;;;;11.85;8.57;;;2.40;99.90;;;;;;4095774;28;20031;-76
2021/01/27 02:46:36;;;;;;;8.80;7.05;;;2.40;99.90;;;;;;4099672;28;20028;-76
2021/01/27 02:48:36;;;;;;;13.38;8.80;;;2.40;99.90;;;;;;4099691;28;20031;-76
2021/01/27 02:50:41;;;;;;;9.13;6.80;;;2.40;99.90;;;;;;4099702;28;20047;-76
2021/01/27 02:52:51;;;;;;;10.75;7.10;;;2.40;99.90;;;;;;4098311;28;20561;-77
2021/01/27 02:55:10;;;;;;;10.43;6.63;;;2.30;99.90;;;;;;4098535;28;20031;-77
2021/01/27 02:57:19;;;;;;;11.20;8.85;;;2.40;99.90;;;;;;4114330;28;20030;-77
2021/01/27 02:59:27;;;;;;;9.32;6.18;;;2.40;99.90;;;;;;4115970;28;20465;-77
2021/01/27 03:01:36;;;;;;;10.18;6.22;;;2.40;99.90;;;;;;4109954;28;20042;-77
2021/01/27 03:03:46;;;;;;;7.80;6.15;;;2.40;99.90;;;;;;4115732;28;20030;-77
2021/01/27 03:05:51;;;;;;;9.05;6.03;;;2.40;99.90;;;;;;4115652;28;20031;-77
2021/01/27 03:07:57;;;;;;;7.15;6.00;;;2.40;99.90;;;;;;4115526;28;20025;-77
2021/01/27 03:10:07;;;;;;;11.15;6.60;;;2.40;99.90;;;;;;4130195;28;20078;-78
2021/01/27 03:12:08;;;;;;;8.50;6.90;;;2.40;99.90;;;;;;4115242;28;20030;-77
2021/01/27 03:14:10;;;;;;;7.68;5.32;;;2.50;99.90;;;;;;4114895;28;20030;-77
2021/01/27 03:16:19;;;;;;;6.85;5.32;;;2.50;99.90;;;;;;4113868;28;20023;-78
2021/01/27 03:18:25;;;;;;;7.18;6.05;;;2.50;99.90;;;;;;4112774;28;20469;-77
2021/01/27 03:20:31;;;;;;;9.55;5.57;;;2.50;99.90;;;;;;4128607;28;20088;-77
2021/01/27 03:22:54;;;;;;;8.40;5.68;;;2.50;99.90;;;;;;4113984;28;20031;-77
2021/01/27 03:25:05;;;;;;;7.70;6.15;;;2.40;99.90;;;;;;4113689;28;20712;-77
2021/01/27 03:27:12;;;;;;;8.05;5.53;;;2.40;99.90;;;;;;4113612;28;20035;-77
2021/01/27 03:29:33;;;;;;;6.90;5.93;;;2.30;99.90;;;;;;4112253;28;20031;-76
2021/01/27 03:31:34;;;;;;;7.25;5.88;;;2.30;99.90;;;;;;4113896;28;20062;-77
2021/01/27 03:34:00;;;;;;;6.18;5.57;;;2.30;99.90;;;;;;4113474;28;20026;-77
2021/01/27 03:36:03;;;;;;;8.18;5.45;;;2.30;99.90;;;;;;4113571;28;20530;-76
2021/01/27 03:38:14;;;;;;;7.30;5.57;;;2.30;99.90;;;;;;4112074;28;20469;-76
2021/01/27 03:40:18;;;;;;;5.97;4.53;;;2.30;99.90;;;;;;4112775;28;20042;-77
2021/01/27 03:42:25;;;;;;;7.68;5.07;;;2.30;99.90;;;;;;4113147;28;20033;-78
2021/01/27 03:44:55;;;;;;;7.25;5.00;;;2.40;99.90;;;;;;4111994;28;20282;-77
2021/01/27 03:47:03;;;;;;;6.70;4.78;;;2.40;99.90;;;;;;4112740;28;20050;-77
2021/01/27 03:49:18;;;;;;;8.55;5.28;;;2.40;99.90;;;;;;4113325;28;20062;-77
2021/01/27 03:51:20;;;;;;;6.32;5.35;;;2.40;99.90;;;;;;4113054;28;20062;-77
2021/01/27 03:53:23;;;;;;;6.00;5.07;;;2.40;99.90;;;;;;4114955;28;20390;-76
2021/01/27 03:55:30;;;;;;;7.80;5.72;;;2.40;99.90;;;;;;4114776;28;20122;-76
2021/01/27 03:57:36;;;;;;;8.00;4.88;;;2.40;99.90;;;;;;4113476;28;20414;-77
2021/01/27 03:59:36;;;;;;;6.13;5.45;;;2.40;99.90;;;;;;4114830;28;20447;-77
2021/01/27 04:01:52;;;;;;;6.50;5.60;;;2.40;99.90;;;;;;4114906;28;20066;-76
2021/01/27 04:03:53;;;;;;;5.53;4.93;;;2.40;99.90;;;;;;4113364;28;20061;-76
2021/01/27 04:05:54;;;;;;;7.43;5.18;;;2.40;99.90;;;;;;4114596;28;20054;-75
2021/01/27 04:07:55;;;;;;;5.82;5.15;;;2.40;99.90;;;;;;4114645;28;20422;-76
2021/01/27 04:09:56;;;;;;;5.82;4.85;;;2.40;99.90;;;;;;4114564;28;20023;-77
2021/01/27 04:11:57;;;;;;;9.07;5.22;;;2.50;99.90;;;;;;4114940;28;20088;-77
2021/01/27 04:13:58;;;;;;;7.57;5.80;;;2.40;99.90;;;;;;4114614;28;20050;-77
2021/01/27 04:15:59;;;;;;;8.52;5.28;;;2.40;99.90;;;;;;4113376;28;20050;-77
2021/01/27 04:18:00;;;;;;;7.47;5.50;;;2.40;99.90;;;;;;4114225;28;20500;-77
2021/01/27 04:20:00;;;;;;;6.53;5.70;;;2.40;99.90;;;;;;4114465;28;20055;-77
2021/01/27 04:22:01;;;;;;;7.45;5.30;;;2.40;99.90;;;;;;4113949;28;20804;-77
2021/01/27 04:24:02;;;;;;;8.95;6.78;;;2.40;99.90;;;;;;4129084;28;20045;-77
2021/01/27 04:26:04;;;;;;;5.75;4.85;;;2.40;99.90;;;;;;4113152;28;20118;-77
2021/01/27 04:28:05;;;;;;;6.45;5.32;;;2.40;99.90;;;;;;4129269;28;20513;-77
2021/01/27 04:30:07;;;;;;;9.60;5.72;;;2.40;99.90;;;;;;4114035;28;20027;-77
2021/01/27 04:32:08;;;;;;;8.38;6.65;;;2.30;99.90;;;;;;4114361;28;20664;-77
2021/01/27 04:34:08;;;;;;;8.15;5.93;;;2.30;99.90;;;;;;4112909;28;20031;-77
2021/01/27 04:36:09;;;;;;;6.75;6.10;;;2.30;99.90;;;;;;4112873;28;20031;-77
2021/01/27 04:38:10;;;;;;;7.90;5.70;;;2.30;99.90;;;;;;4113998;28;20429;-78
2021/01/27 04:40:16;;;;;;;5.75;5.25;;;2.30;99.90;;;;;;4112898;28;20114;-78
2021/01/27 04:42:24;;;;;;;5.35;4.82;;;2.30;99.90;;;;;;4114221;28;20035;-77
2021/01/27 04:44:25;;;;;;;10.65;6.35;;;2.40;99.90;;;;;;4113980;28;20039;-77
2021/01/27 04:46:32;;;;;;;7.38;5.70;;;2.40;99.90;;;;;;4114289;28;20058;-77
2021/01/27 04:48:54;;;;;;;9.27;7.13;;;2.30;99.90;;;;;;4112545;28;20023;-77
2021/01/27 04:51:01;;;;;;;7.28;6.55;;;2.30;99.90;;;;;;4113599;28;20043;-77
2021/01/27 04:53:07;;;;;;;9.32;7.38;;;2.20;99.90;;;;;;4113381;28;20029;-76
2021/01/27 04:55:50;;;;;;;9.70;6.40;;;2.20;99.90;;;;;;4113874;28;20023;-76
2021/01/27 04:58:14;;;;;;;7.78;6.35;;;2.20;99.90;;;;;;4101554;28;20042;-76
2021/01/27 05:00:35;;;;;;;8.75;6.32;;;2.10;99.90;;;;;;4084786;28;20031;-76
2021/01/27 05:02:54;;;;;;;7.18;5.63;;;2.10;99.90;;;;;;4085394;28;20044;-76
2021/01/27 05:05:08;;;;;;;9.80;6.93;;;2.10;99.90;;;;;;4095023;28;20058;-76
2021/01/27 05:07:13;;;;;;;9.00;7.30;;;2.10;99.90;;;;;;4096089;28;20070;-76
2021/01/27 05:09:29;;;;;;;8.40;6.20;;;2.00;99.90;;;;;;4094975;28;20023;-76
2021/01/27 05:11:30;;;;;;;8.80;6.97;;;2.00;99.90;;;;;;4096717;28;20448;-77
2021/01/27 05:13:33;;;;;;;8.98;6.40;;;1.90;99.90;;;;;;4095523;28;20027;-76
2021/01/27 05:15:34;;;;;;;10.10;7.57;;;1.90;99.90;;;;;;4097887;28;20487;-76
2021/01/27 05:17:39;;;;;;;12.63;7.75;;;1.80;99.90;;;;;;4097672;28;20041;-76
2021/01/27 05:19:40;;;;;;;9.27;8.27;;;1.80;99.90;;;;;;4105122;28;20117;-76
2021/01/27 05:21:49;;;;;;;9.35;7.85;;;1.80;99.90;;;;;;4103890;28;20537;-76
2021/01/27 05:23:49;;;;;;;8.18;7.32;;;1.70;99.90;;;;;;4092339;28;20077;-76
2021/01/27 05:26:13;;;;;;;9.85;7.38;;;1.70;99.90;;;;;;4105057;28;20035;-76
2021/01/27 05:28:22;;;;;;;8.95;7.03;;;1.70;99.90;;;;;;4100386;28;20086;-77
2021/01/27 05:30:41;;;;;;;8.27;6.47;;;1.70;99.90;;;;;;4099768;28;20039;-77
2021/01/27 05:32:56;;;;;;;10.45;8.18;;;1.80;99.90;;;;;;4093501;28;20210;-76
2021/01/27 05:34:57;;;;;;;11.07;8.15;;;1.70;99.90;;;;;;4095705;28;20031;-77
2021/01/27 05:36:58;;;;;;;11.88;8.00;;;1.70;99.90;;;;;;4094899;28;20122;-77
2021/01/27 05:39:15;;;;;;;8.18;7.35;;;1.70;99.90;;;;;;4095744;28;20078;-76
2021/01/27 05:41:22;;;;;;;9.18;7.40;;;1.70;99.90;;;;;;4105877;28;20023;-76
2021/01/27 05:43:25;;;;;;;11.48;8.18;;;1.70;99.90;;;;;;4112529;28;20029;-77
2021/01/27 05:45:31;;;;;;;10.70;7.97;;;1.70;99.90;;;;;;4113001;28;20110;-77
2021/01/27 05:47:38;;;;;;;11.02;8.23;;;1.70;99.90;;;;;;4113118;28;20057;-77
2021/01/27 05:49:39;;;;;;;9.75;7.85;;;1.70;99.90;;;;;;4112995;28;20027;-76
2021/01/27 05:51:39;;;;;;;11.02;8.75;;;1.70;99.90;;;;;;4111942;28;20094;-76
2021/01/27 05:53:40;;;;;;;9.32;7.70;;;1.70;99.90;;;;;;4112847;28;20023;-76
2021/01/27 05:56:02;;;;;;;11.75;8.57;;;1.70;99.90;;;;;;4127891;28;20097;-76
2021/01/27 05:58:03;;;;;;;10.77;8.65;;;1.70;99.90;;;;;;4110324;28;20054;-76
2021/01/27 06:00:25;;;;;;;12.30;9.02;;;1.70;99.90;;;;;;4111954;28;20501;-76
2021/01/27 06:02:25;;;;;;;11.63;9.10;;;1.70;99.90;;;;;;4111652;28;20034;-75
2021/01/27 06:04:29;;;;;;;10.57;8.52;;;1.70;99.90;;;;;;4114193;28;20127;-75
2021/01/27 06:06:33;;;;;;;10.10;8.98;;;1.70;99.90;;;;;;4114803;28;20401;-76
2021/01/27 06:08:34;;;;;;;14.50;10.68;;;1.60;99.90;;;;;;4114929;28;20027;-76
2021/01/27 06:10:35;;;;;;;12.85;9.80;;;1.60;99.90;;;;;;4115481;28;20114;-75
2021/01/27 06:12:36;;;;;;;11.27;8.55;;;1.60;99.90;;;;;;4115313;28;20066;-74
2021/01/27 06:14:37;;;;;;;10.63;8.55;;;1.70;99.90;;;;;;4115507;28;20027;-75
2021/01/27 06:16:45;;;;;;;9.63;8.32;;;1.70;99.90;;;;;;4116105;28;20166;-75
2021/01/27 06:18:45;;;;;;;10.27;8.95;;;1.70;99.90;;;;;;4101864;28;20031;-75
2021/01/27 06:20:47;;;;;;;10.65;9.32;;;1.70;99.90;;;;;;4114700;28;20121;-75
2021/01/27 06:23:11;;;;;;;14.60;9.65;;;1.70;99.90;;;;;;4113344;28;20023;-75
2021/01/27 06:26:07;;;;;;;11.48;8.85;;;1.70;99.90;;;;;;4113496;28;20023;-75
2021/01/27 06:28:32;;;;;;;12.75;9.43;;;1.60;99.90;;;;;;4086394;29;20035;-73
2021/01/27 06:30:44;;;;;;;13.82;10.10;;;1.60;99.90;;;;;;4108288;28;20114;-74
2021/01/27 06:33:06;;;;;;;17.40;11.23;;;1.50;99.90;;;;;;4114334;28;20031;-73
2021/01/27 06:35:45;;;;;;;14.30;10.48;;;1.60;99.90;;;;;;4112756;28;20051;-75
2021/01/27 06:38:01;;;;;;;13.38;10.00;;;1.60;99.90;;;;;;4103998;28;20031;-74
2021/01/27 06:40:29;;;;;;;14.48;12.05;;;1.60;99.90;;;;;;4146603;28;20034;-74
2021/01/27 06:42:46;;;;;;;15.65;11.15;;;1.60;99.90;;;;;;4115720;28;20031;-74
2021/01/27 06:45:15;;;;;;;17.45;12.00;;;1.60;99.90;;;;;;4103218;28;20026;-74
2021/01/27 06:47:22;;;;;;;12.70;10.52;;;1.60;99.90;;;;;;4099384;28;20550;-74
2021/01/27 06:49:50;;;;;;;15.50;11.82;;;1.60;99.90;;;;;;4099441;28;20039;-74
2021/01/27 06:52:28;;;;;;;14.43;10.48;;;1.60;99.90;;;;;;4091330;28;20039;-73
2021/01/27 06:55:02;;;;;;;16.58;12.27;;;1.70;99.90;;;;;;4097336;28;20391;-73
2021/01/27 06:57:36;;;;;;;15.80;11.48;;;1.70;99.90;;;;;;4072425;28;20517;-73
2021/01/27 06:59:52;;;;;;;14.65;10.25;;;1.70;99.90;;;;;;4102134;28;20027;-73
2021/01/27 07:02:20;;;;;;;17.17;12.70;;;1.70;99.90;;;;;;4100040;28;20045;-73
2021/01/27 07:05:00;;;;;;;16.67;11.93;;;1.70;99.90;;;;;;4114492;28;20102;-73
2021/01/27 07:07:10;;;;;;;17.85;11.90;;;1.80;99.90;;;;;;4114100;28;20042;-73
2021/01/27 07:09:28;;;;;;;16.33;11.82;;;1.80;99.90;;;;;;4130658;28;20030;-73
2021/01/27 07:11:54;;;;;;;18.17;12.63;;;1.70;99.90;;;;;;4107360;28;20121;-74
2021/01/27 07:14:07;;;;;;;16.75;12.05;;;1.70;99.90;;;;;;4130511;28;20504;-74
2021/01/27 07:16:14;;;;;;;17.77;11.50;;;1.80;99.90;;;;;;4110911;28;20165;-74
2021/01/27 07:18:54;;;;;;;17.65;12.05;;;1.80;99.90;;;;;;4123102;28;20274;-75
2021/01/27 07:21:06;;;;;;;20.08;13.63;;;1.80;99.90;;;;;;4116379;28;20084;-74
2021/01/27 07:23:31;;;;;;;17.25;12.18;;;1.80;99.90;;;;;;4126187;28;20048;-75
2021/01/27 07:25:47;;;;;;;17.88;13.00;;;1.80;99.90;;;;;;4123168;28;20169;-74
2021/01/27 07:28:11;;;;;;;21.13;12.00;;;1.80;99.90;;;;;;4130045;28;20042;-75
2021/01/27 07:30:20;;;;;;;16.23;12.52;;;1.80;99.90;;;;;;4113372;28;20027;-75
2021/01/27 07:32:41;;;;;;;20.00;12.75;;;1.80;99.90;;;;;;4116611;28;20037;-75
2021/01/27 07:34:51;;;;;;;16.75;11.48;;;1.80;99.90;;;;;;4113141;28;20501;-75
2021/01/27 07:37:13;;;;;;;17.30;11.07;;;1.80;99.90;;;;;;4126647;28;20038;-75
2021/01/27 07:39:22;;;;;;;22.40;12.32;;;1.90;99.90;;;;;;4114906;28;20033;-74
2021/01/27 07:41:28;;;;;;;17.42;12.30;;;1.90;99.90;;;;;;4112315;28;20034;-75
2021/01/27 07:43:43;;;;;;;17.55;11.43;;;1.90;99.90;;;;;;4141964;28;20105;-75
2021/01/27 07:45:52;;;;;;;16.58;12.35;;;1.90;99.90;;;;;;4115116;28;20027;-75
2021/01/27 07:48:10;;;;;;;19.25;12.98;;;1.90;99.90;;;;;;4107584;28;20046;-75
2021/01/27 07:50:12;;;;;;;19.33;12.68;;;1.90;99.90;;;;;;4115213;28;20043;-75
2021/01/27 07:52:18;;;;;;;18.65;14.18;;;2.00;99.90;;;;;;4119610;28;20352;-74
2021/01/27 07:54:25;;;;;;;14.10;10.57;;;2.00;99.90;;;;;;4117805;28;20039;-75
2021/01/27 07:56:41;;;;;;;16.63;11.80;;;2.00;99.90;;;;;;4130361;28;20039;-74
2021/01/27 07:58:54;;;;;;;22.45;12.90;;;2.00;99.90;;;;;;4116942;28;20506;-73
2021/01/27 08:00:57;;;;;;;18.92;12.43;;;2.00;99.90;;;;;;4120560;28;20022;-73
2021/01/27 08:03:19;;;;;;;19.20;12.63;;;2.00;99.90;;;;;;4134649;28;20072;-74
2021/01/27 08:05:20;;;;;;;16.60;12.23;;;2.00;99.90;;;;;;4112247;28;20493;-73
2021/01/27 08:07:32;;;;;;;18.25;14.00;;;2.10;99.90;;;;;;4128695;28;20792;-74
2021/01/27 08:09:37;;;;;;;19.83;13.68;;;2.10;99.90;;;;;;4127730;28;20451;-74
2021/01/27 08:11:44;;;;;;;22.73;14.35;;;2.10;99.90;;;;;;4127764;28;20136;-74
2021/01/27 08:13:45;;;;;;;20.30;12.93;;;2.10;99.90;;;;;;4127656;28;20031;-74
2021/01/27 08:16:13;;;;;;;17.02;10.93;;;2.10;99.90;;;;;;4126827;28;20521;-75
2021/01/27 08:18:18;;;;;;;14.55;10.98;;;2.10;99.90;;;;;;4142839;28;20061;-75
2021/01/27 08:20:34;;;;;;;20.65;13.50;;;2.20;99.90;;;;;;4126056;28;20023;-74
2021/01/27 08:22:49;;;;;;;20.25;13.95;;;2.20;99.90;;;;;;4143249;28;20034;-74
2021/01/27 08:24:50;;;;;;;20.08;13.15;;;2.20;99.90;;;;;;4143378;28;20049;-74
2021/01/27 08:26:52;;;;;;;22.73;13.73;;;2.20;99.90;;;;;;4127136;28;20019;-74
2021/01/27 08:29:06;;;;;;;23.27;14.75;;;2.20;99.90;;;;;;4102958;28;20126;-74
2021/01/27 08:31:10;;;;;;;23.20;13.70;;;2.20;99.90;;;;;;4098710;28;20022;-74
2021/01/27 08:33:48;;;;;;;16.80;11.63;;;2.20;99.90;;;;;;4126660;28;20031;-74
2021/01/27 08:35:48;;;;;;;19.05;12.77;;;2.30;99.90;;;;;;4112990;28;20030;-74
2021/01/27 08:38:24;;;;;;;21.50;14.20;;;2.40;99.90;;;;;;4128046;28;20045;-74
2021/01/27 08:40:27;;;;;;;19.17;13.13;;;2.40;99.90;;;;;;4111627;28;20049;-74
2021/01/27 08:42:38;;;;;;;20.55;14.45;;;2.40;99.90;;;;;;4124798;28;20035;-74
2021/01/27 08:44:42;;;;;;;17.70;12.35;;;2.40;99.90;;;;;;4113259;28;20049;-74
2021/01/27 08:47:09;;;;;;;23.23;15.60;;;2.40;99.90;;;;;;4113395;28;20031;-74
2021/01/27 08:49:11;;;;;;;21.25;13.65;;;2.40;99.90;;;;;;4143601;28;20041;-75
2021/01/27 08:51:38;;;;;;;21.00;13.77;;;2.40;99.90;;;;;;4112909;28;20129;-74
2021/01/27 08:53:54;;;;;;;21.52;14.10;;;2.50;99.90;;;;;;4112166;28;20077;-74
2021/01/27 08:55:57;;;;;;;20.40;13.68;;;2.40;99.90;;;;;;4120640;28;20386;-74
2021/01/27 08:58:37;;;;;;;20.83;14.65;;;2.50;99.90;;;;;;4119082;28;20031;-75
2021/01/27 09:00:37;;;;;;;22.05;15.07;;;2.50;99.90;;;;;;4088262;28;20034;-76
2021/01/27 09:02:47;;;;;;;23.90;15.10;;;2.50;99.90;;;;;;4126772;28;20475;-76
2021/01/27 09:04:47;;;;;;;19.73;12.63;;;2.50;99.90;;;;;;4105691;28;20097;-74
2021/01/27 09:06:49;;;;;;;22.77;14.95;;;2.50;99.90;;;;;;4125764;28;20087;-74
2021/01/27 09:08:50;;;;;;;17.30;11.70;;;2.60;99.90;;;;;;4109034;28;20033;-74
2021/01/27 09:11:41;;;;;;;25.42;15.98;;;2.60;99.90;;;;;;4106162;28;20391;-73
2021/01/27 09:14:32;;;;;;;24.70;16.13;;;2.60;99.90;;;;;;4111083;28;20042;-76
2021/01/27 09:17:23;;;;;;;23.98;16.70;;;2.60;99.90;;;;;;4120353;28;20037;-76
2021/01/27 09:23:24;;;;;;;23.98;15.77;;;2.70;99.90;;;;;;4101376;28;20046;-74
2021/01/27 09:26:16;;;;;;;24.23;15.90;;;2.70;99.90;;;;;;4091549;28;20098;-74
2021/01/27 09:29:07;;;;;;;25.98;16.90;;;2.70;99.90;;;;;;4093963;28;20131;-76
2021/01/27 09:38:04;;;;;;;30.20;19.58;;;2.80;99.90;;;;;;4104087;28;20057;-75
2021/01/27 09:40:56;;;;;;;28.85;18.05;;;2.80;99.90;;;;;;4095853;28;20114;-76
2021/01/27 09:43:05;;;;;;;29.73;17.17;;;2.90;99.90;;;;;;4094940;28;20130;-74
2021/01/27 09:45:08;;;;;;;31.20;19.05;;;2.90;99.90;;;;;;4344490;23;20438;-75
2021/01/27 09:47:12;;;;;;;19.50;13.40;;;2.90;99.90;;;;;;4128863;28;20077;-76
2021/01/27 09:49:14;;;;;;;;;;;3.00;99.90;;;;;;4145576;28;20115;-75
2021/01/27 09:51:15;;;;;;;19.95;14.68;;;3.00;99.90;;;;;;4142805;28;19980;-75
2021/01/27 09:53:33;;;;;;;25.35;17.45;;;3.10;99.90;;;;;;4142029;28;20041;-75
2021/01/27 09:55:34;;;;;;;25.52;18.27;;;3.10;99.90;;;;;;4137984;28;20405;-73
2021/01/27 09:57:38;;;;;;;27.75;18.92;;;3.00;99.90;;;;;;4149888;28;20500;-76
2021/01/27 09:59:40;;;;;;;29.83;19.35;;;3.10;99.90;;;;;;4147358;28;20084;-75
2021/01/27 10:01:45;;;;;;;24.00;14.82;;;3.10;99.90;;;;;;4148457;28;20025;-76
2021/01/27 10:03:51;;;;;;;27.15;20.35;;;3.20;99.90;;;;;;4142935;28;20103;-76
2021/01/27 10:05:53;;;;;;;31.10;20.90;;;3.30;99.90;;;;;;4151095;28;20087;-75
2021/01/27 10:07:53;;;;;;;26.92;19.10;;;3.30;99.90;;;;;;4135390;28;20038;-76
2021/01/27 10:09:58;;;;;;;29.13;19.05;;;3.40;99.90;;;;;;4150051;28;20036;-76
2021/01/27 10:12:02;;;;;;;27.30;19.85;;;3.40;99.90;;;;;;4149383;28;20403;-75
2021/01/27 10:14:09;;;;;;;27.45;19.75;;;3.40;99.90;;;;;;4148607;28;20148;-75
2021/01/27 10:16:14;;;;;;;27.20;19.73;;;3.40;99.90;;;;;;4149649;28;20148;-76
2021/01/27 10:18:21;;;;;;;25.40;18.92;;;3.50;99.90;;;;;;4149433;28;20040;-75
2021/01/27 10:20:24;;;;;;;26.23;19.88;;;3.50;99.90;;;;;;4148757;28;20144;-75
2021/01/27 10:22:33;;;;;;;30.30;19.98;;;3.50;99.90;;;;;;4149809;28;20488;-74
2021/01/27 10:24:52;;;;;;;28.38;20.35;;;3.40;99.90;;;;;;4143392;28;20041;-74
2021/01/27 10:27:01;;;;;;;25.20;17.00;;;3.40;99.90;;;;;;4151519;28;20026;-74
2021/01/27 10:29:17;;;;;;;26.08;18.35;;;3.40;99.90;;;;;;4146915;28;20034;-75
2021/01/27 10:31:35;;;;;;;25.70;17.35;;;3.50;99.90;;;;;;4145710;28;20380;-75
2021/01/27 10:33:42;;;;;;;30.60;21.02;;;3.50;99.90;;;;;;4145441;28;20033;-75
2021/01/27 10:35:43;;;;;;;26.73;16.63;;;3.50;99.90;;;;;;4147255;28;20030;-75
2021/01/27 10:37:44;;;;;;;27.58;18.60;;;3.50;99.90;;;;;;4144949;28;20125;-75
2021/01/27 10:40:24;;;;;;;27.40;19.60;;;3.60;99.90;;;;;;4144640;28;20612;-75
2021/01/27 10:42:24;;;;;;;27.95;19.58;;;3.60;99.90;;;;;;4145120;28;20040;-75
2021/01/27 10:44:32;;;;;;;27.63;19.63;;;3.70;99.90;;;;;;4139987;28;20066;-76
2021/01/27 10:46:34;;;;;;;25.80;19.55;;;3.70;99.90;;;;;;4129140;28;20066;-74
2021/01/27 10:48:35;;;;;;;27.95;19.98;;;3.60;99.90;;;;;;4127402;28;20064;-75
2021/01/27 10:50:41;;;;;;;31.70;20.85;;;3.60;99.90;;;;;;4132724;28;20125;-75
2021/01/27 10:52:43;;;;;;;30.27;20.63;;;3.60;99.90;;;;;;4130409;28;20133;-75
2021/01/27 10:54:44;;;;;;;30.52;20.95;;;3.70;99.90;;;;;;4130225;28;20034;-75
2021/01/27 10:56:49;;;;;;;32.65;21.48;;;3.70;99.90;;;;;;4131207;28;20046;-74
2021/01/27 10:58:50;;;;;;;31.10;19.15;;;3.70;99.90;;;;;;4128058;28;20023;-74
2021/01/27 11:00:51;;;;;;;30.45;20.73;;;3.80;99.90;;;;;;4133818;28;20117;-74
2021/01/27 11:02:52;;;;;;;32.15;21.25;;;3.90;99.90;;;;;;4132537;28;20033;-74
2021/01/27 11:04:52;;;;;;;30.40;20.85;;;3.90;99.90;;;;;;4134633;28;20022;-75
2021/01/27 11:06:53;;;;;;;31.02;20.35;;;3.90;99.90;;;;;;4132008;28;20464;-75
2021/01/27 11:08:54;;;;;;;27.20;19.27;;;4.00;99.90;;;;;;4135200;28;20559;-74
2021/01/27 11:10:56;;;;;;;30.33;18.70;;;4.00;99.90;;;;;;4134480;28;20049;-74
2021/01/27 11:12:58;;;;;;;26.90;18.38;;;4.00;99.90;;;;;;4129499;28;20022;-74
2021/01/27 11:14:58;;;;;;;30.05;19.30;;;4.10;99.90;;;;;;4128374;28;20030;-76
2021/01/27 11:17:01;;;;;;;29.15;20.77;;;4.10;99.90;;;;;;4129610;28;20057;-76
2021/01/27 11:19:02;;;;;;;30.10;20.20;;;4.10;99.90;;;;;;4126569;28;20146;-75
2021/01/27 11:21:04;;;;;;;31.08;19.65;;;4.10;99.90;;;;;;4125331;28;20033;-77
2021/01/27 11:23:05;;;;;;;29.33;20.35;;;4.10;99.90;;;;;;4128287;28;20425;-74
2021/01/27 11:25:06;;;;;;;33.17;20.85;;;4.20;99.90;;;;;;4128146;28;20019;-75
2021/01/27 11:27:07;;;;;;;35.00;23.02;;;4.30;99.90;;;;;;4130011;28;20034;-75
2021/01/27 11:29:08;;;;;;;35.80;22.00;;;4.20;99.90;;;;;;4115661;28;20049;-75